createdAt,value
2022-08-02T00:00:57.465Z,23.63
2022-08-02T00:03:24.799Z,23.55
2022-08-02T00:05:53.701Z,23.50
2022-08-02T00:08:22.482Z,23.48
2022-08-02T00:10:49.965Z,23.51
2022-08-02T00:13:17.008Z,23.50
2022-08-02T00:15:44.208Z,23.61
2022-08-02T00:18:11.298Z,23.52
2022-08-02T00:20:38.442Z,23.50
2022-08-02T00:23:05.553Z,23.43
2022-08-02T00:25:32.533Z,23.36
2022-08-02T00:27:59.527Z,23.37
2022-08-02T00:30:26.568Z,23.39
2022-08-02T00:32:53.656Z,23.39
2022-08-02T00:35:20.936Z,23.54
2022-08-02T00:37:48.117Z,23.63
2022-08-02T00:40:15.463Z,23.50
2022-08-02T00:42:44.243Z,23.38
2022-08-02T00:45:11.479Z,23.39
2022-08-02T00:47:38.588Z,23.25
2022-08-02T00:50:06.487Z,23.46
2022-08-02T00:52:33.660Z,23.23
2022-08-02T00:55:00.731Z,23.33
2022-08-02T00:57:27.766Z,23.43
2022-08-02T00:59:54.726Z,23.41
2022-08-02T01:02:21.787Z,23.46
2022-08-02T01:04:48.864Z,23.45
2022-08-02T01:07:16.005Z,23.34
2022-08-02T01:09:45.082Z,23.37
2022-08-02T01:12:13.187Z,23.48
2022-08-02T01:14:50.942Z,23.32
2022-08-02T01:17:58.826Z,23.11
2022-08-02T01:20:58.126Z,23.06
2022-08-02T01:23:43.132Z,23.13
2022-08-02T01:26:37.467Z,23.24
2022-08-02T01:29:17.075Z,22.90
2022-08-02T01:32:02.059Z,23.04
2022-08-02T01:34:46.254Z,23.06
2022-08-02T01:37:32.393Z,23.10
2022-08-02T01:40:09.648Z,23.15
2022-08-02T01:42:40.612Z,23.17
2022-08-02T01:45:10.335Z,23.04
2022-08-02T01:47:40.753Z,23.07
2022-08-02T01:50:12.096Z,23.04
2022-08-02T01:52:53.544Z,23.02
2022-08-02T01:55:35.068Z,22.85
2022-08-02T01:58:23.235Z,23.08
2022-08-02T02:00:51.408Z,23.13
2022-08-02T02:03:24.717Z,23.03
2022-08-02T02:05:57.794Z,23.09
2022-08-02T02:08:32.484Z,22.86
2022-08-02T02:12:06.024Z,23.04
2022-08-02T02:13:50.800Z,23.13
2022-08-02T02:16:22.065Z,23.06
2022-08-02T02:18:49.996Z,23.04
2022-08-02T02:21:17.270Z,23.05
2022-08-02T02:23:44.444Z,22.98
2022-08-02T02:26:16.822Z,22.88
2022-08-02T02:28:58.449Z,23.00
2022-08-02T02:31:27.184Z,22.88
2022-08-02T02:34:03.061Z,22.76
2022-08-02T02:36:33.342Z,22.76
2022-08-02T02:39:11.602Z,22.89
2022-08-02T02:41:43.492Z,22.77
2022-08-02T02:44:18.479Z,22.70
2022-08-02T02:46:46.832Z,22.85
2022-08-02T02:49:16.284Z,22.86
2022-08-02T02:51:44.455Z,22.92
2022-08-02T02:54:30.589Z,22.78
2022-08-02T02:57:02.830Z,22.64
2022-08-02T02:59:30.382Z,22.62
2022-08-02T03:01:58.880Z,22.58
2022-08-02T03:04:55.957Z,22.55
2022-08-02T03:07:16.767Z,22.38
2022-08-02T03:09:44.093Z,22.32
2022-08-02T03:12:11.812Z,22.34
2022-08-02T03:14:45.547Z,22.15
2022-08-02T03:17:16.769Z,22.22
2022-08-02T03:19:45.513Z,22.25
2022-08-02T03:22:15.711Z,22.28
2022-08-02T03:24:42.791Z,22.35
2022-08-02T03:27:09.820Z,22.24
2022-08-02T03:29:36.911Z,22.32
2022-08-02T03:32:04.558Z,22.21
2022-08-02T03:34:31.861Z,22.24
2022-08-02T03:36:59.728Z,22.27
2022-08-02T03:39:27.955Z,22.28
2022-08-02T03:41:55.974Z,22.23
2022-08-02T03:44:24.263Z,22.15
2022-08-02T03:46:53.031Z,22.09
2022-08-02T03:49:21.961Z,22.13
2022-08-02T03:51:49.405Z,22.11
2022-08-02T03:54:18.796Z,22.04
2022-08-02T03:56:46.516Z,22.00
2022-08-02T03:59:15.218Z,22.09
2022-08-02T04:01:42.795Z,22.15
2022-08-02T04:04:10.434Z,22.24
2022-08-02T04:06:40.162Z,22.15
2022-08-02T04:09:09.649Z,22.13
2022-08-02T04:11:37.977Z,21.95
2022-08-02T04:14:11.100Z,21.88
2022-08-02T04:17:08.606Z,21.96
2022-08-02T04:19:50.937Z,22.08
2022-08-02T04:22:27.470Z,22.09
2022-08-02T04:28:15.571Z,22.00
2022-08-02T04:30:21.378Z,21.89
2022-08-02T04:32:48.429Z,21.76
2022-08-02T04:35:20.159Z,21.99
2022-08-02T04:38:08.521Z,21.98
2022-08-02T04:40:36.367Z,22.16
2022-08-02T04:43:03.614Z,22.00
2022-08-02T04:45:31.618Z,21.93
2022-08-02T04:48:06.521Z,21.85
2022-08-02T04:50:34.755Z,22.08
2022-08-02T04:53:01.943Z,22.09
2022-08-02T04:55:30.058Z,21.98
2022-08-02T04:57:58.948Z,22.03
2022-08-02T05:00:29.849Z,22.16
2022-08-02T05:02:58.032Z,22.24
2022-08-02T05:05:26.126Z,22.16
2022-08-02T05:07:53.283Z,22.36
2022-08-02T05:10:20.998Z,22.40
2022-08-02T05:12:48.234Z,22.70
2022-08-02T05:15:18.316Z,23.12
2022-08-02T05:17:48.541Z,23.37
2022-08-02T05:20:19.642Z,23.62
2022-08-02T05:22:47.289Z,23.47
2022-08-02T05:25:15.205Z,23.69
2022-08-02T05:27:42.662Z,23.65
2022-08-02T05:30:10.400Z,23.66
2022-08-02T05:32:47.307Z,23.81
2022-08-02T05:35:17.304Z,24.00
2022-08-02T05:37:44.274Z,24.22
2022-08-02T05:40:16.591Z,24.48
2022-08-02T05:42:44.259Z,24.18
2022-08-02T05:45:11.988Z,24.47
2022-08-02T05:47:39.670Z,24.32
2022-08-02T05:50:08.392Z,24.21
2022-08-02T05:53:02.608Z,24.21
2022-08-02T05:55:38.208Z,24.42
2022-08-02T05:58:31.351Z,24.64
2022-08-02T06:01:02.857Z,25.13
2022-08-02T06:03:43.515Z,25.37
2022-08-02T06:06:17.754Z,25.60
2022-08-02T06:08:49.391Z,25.40
2022-08-02T06:11:22.188Z,25.30
2022-08-02T06:13:49.676Z,25.70
2022-08-02T06:16:18.057Z,25.70
2022-08-02T06:19:01.242Z,25.53
2022-08-02T06:22:32.851Z,24.97
2022-08-02T06:24:19.951Z,25.36
2022-08-02T06:26:52.943Z,25.51
2022-08-02T06:29:23.332Z,25.72
2022-08-02T06:31:53.491Z,26.66
2022-08-02T06:34:20.826Z,27.40
2022-08-02T06:37:07.547Z,27.80
2022-08-02T06:39:47.860Z,28.80
2022-08-02T06:42:33.817Z,29.35
2022-08-02T06:45:00.908Z,30.10
2022-08-02T06:47:28.682Z,30.97
2022-08-02T06:49:58.556Z,31.22
2022-08-02T06:52:29.729Z,31.71
2022-08-02T06:55:02.662Z,31.71
2022-08-02T06:57:31.092Z,32.27
2022-08-02T07:00:02.673Z,32.85
2022-08-02T07:02:31.527Z,32.84
2022-08-02T07:04:59.127Z,33.58
2022-08-02T07:07:28.027Z,33.57
2022-08-02T07:10:00.922Z,32.64
2022-08-02T07:12:34.384Z,31.08
2022-08-02T07:15:06.046Z,31.08
2022-08-02T07:17:34.215Z,31.21
2022-08-02T07:20:01.818Z,31.67
2022-08-02T07:22:29.575Z,32.30
2022-08-02T07:24:58.911Z,32.85
2022-08-02T07:27:27.175Z,33.11
2022-08-02T07:29:55.556Z,32.73
2022-08-02T07:32:26.409Z,32.76
2022-08-02T07:34:55.977Z,33.65
2022-08-02T07:37:53.027Z,34.76
2022-08-02T07:40:19.895Z,34.27
2022-08-02T07:42:56.393Z,35.02
2022-08-02T07:45:26.520Z,35.57
2022-08-02T07:47:53.745Z,35.78
2022-08-02T07:50:21.807Z,35.23
2022-08-02T07:52:50.050Z,35.04
2022-08-02T07:55:24.705Z,35.86
2022-08-02T07:58:07.062Z,35.68
2022-08-02T08:00:38.381Z,35.18
2022-08-02T08:03:06.365Z,35.88
2022-08-02T08:05:34.001Z,35.89
2022-08-02T08:08:01.028Z,36.01
2022-08-02T08:10:28.526Z,36.37
2022-08-02T08:12:56.855Z,36.51
2022-08-02T08:15:23.867Z,34.90
2022-08-02T08:17:50.903Z,35.53
2022-08-02T08:20:18.658Z,36.28
2022-08-02T08:22:46.425Z,35.82
2022-08-02T08:25:13.431Z,35.98
2022-08-02T08:27:52.344Z,37.25
2022-08-02T08:30:22.036Z,37.39
2022-08-02T08:32:49.579Z,36.88
2022-08-02T08:35:16.664Z,37.07
2022-08-02T08:37:44.064Z,36.37
2022-08-02T08:40:12.593Z,36.67
2022-08-02T08:42:40.473Z,35.75
2022-08-02T08:45:09.196Z,35.93
2022-08-02T08:47:42.350Z,37.18
2022-08-02T08:50:18.887Z,36.39
2022-08-02T08:53:08.380Z,35.66
2022-08-02T08:55:36.641Z,36.47
2022-08-02T08:58:05.368Z,37.49
2022-08-02T09:00:36.357Z,37.68
2022-08-02T09:03:07.176Z,36.85
2022-08-02T09:05:43.518Z,37.73
2022-08-02T09:08:16.337Z,36.62
2022-08-02T09:10:47.363Z,35.45
2022-08-02T09:13:45.130Z,35.46
2022-08-02T09:16:14.773Z,35.42
2022-08-02T09:18:47.117Z,35.63
2022-08-02T09:21:17.183Z,35.28
2022-08-02T09:23:52.612Z,34.87
2022-08-02T09:26:24.603Z,35.12
2022-08-02T09:29:19.455Z,35.33
2022-08-02T09:32:06.960Z,34.42
2022-08-02T09:34:52.445Z,35.39
2022-08-02T09:37:37.566Z,36.01
2022-08-02T09:40:06.949Z,36.70
2022-08-02T09:42:34.850Z,37.14
2022-08-02T09:45:03.220Z,36.62
2022-08-02T09:47:31.355Z,36.32
2022-08-02T09:49:59.129Z,35.63
2022-08-02T09:52:43.026Z,36.06
2022-08-02T09:55:12.801Z,35.73
2022-08-02T09:57:40.186Z,36.65
2022-08-02T10:00:20.404Z,35.78
2022-08-02T10:03:21.490Z,35.05
2022-08-02T10:06:02.560Z,35.32
2022-08-02T10:08:33.846Z,36.60
2022-08-02T10:11:04.010Z,37.13
2022-08-02T10:13:36.728Z,36.61
2022-08-02T10:16:06.304Z,36.37
2022-08-02T10:18:39.320Z,35.76
2022-08-02T10:21:15.316Z,35.92
2022-08-02T10:23:45.152Z,36.53
2022-08-02T10:26:18.576Z,35.82
2022-08-02T10:28:49.665Z,35.68
2022-08-02T10:31:23.491Z,35.91
2022-08-02T10:33:53.033Z,36.75
2022-08-02T10:36:23.708Z,35.19
2022-08-02T10:38:51.188Z,36.35
2022-08-02T10:41:43.003Z,34.96
2022-08-02T10:44:29.268Z,33.04
2022-08-02T10:47:27.735Z,33.15
2022-08-02T10:50:00.467Z,33.69
2022-08-02T10:52:33.567Z,32.98
2022-08-02T10:55:13.503Z,34.21
2022-08-02T10:57:41.906Z,34.01
2022-08-02T11:00:24.869Z,33.52
2022-08-02T11:02:53.860Z,34.40
2022-08-02T11:05:42.797Z,35.15
2022-08-02T11:08:37.294Z,33.80
2022-08-02T11:11:53.811Z,33.49
2022-08-02T11:14:14.899Z,33.72
2022-08-02T11:17:02.807Z,34.46
2022-08-02T11:19:30.024Z,35.15
2022-08-02T11:22:13.775Z,34.81
2022-08-02T11:24:43.189Z,35.12
2022-08-02T11:27:19.145Z,35.07
2022-08-02T11:29:49.734Z,33.52
2022-08-02T11:32:22.317Z,34.23
2022-08-02T11:34:58.946Z,35.16
2022-08-02T11:37:36.449Z,35.14
2022-08-02T11:40:19.743Z,35.41
2022-08-02T11:42:50.833Z,35.05
2022-08-02T11:45:21.509Z,34.69
2022-08-02T11:47:52.243Z,35.23
2022-08-02T11:50:30.112Z,34.35
2022-08-02T11:52:58.469Z,35.50
2022-08-02T11:55:30.916Z,35.34
2022-08-02T11:58:05.428Z,34.80
2022-08-02T12:00:34.319Z,33.94
2022-08-02T12:03:02.018Z,35.15
2022-08-02T12:06:04.963Z,34.82
2022-08-02T12:08:19.195Z,33.84
2022-08-02T12:10:50.947Z,34.41
2022-08-02T12:13:18.019Z,34.78
2022-08-02T12:15:47.090Z,34.70
2022-08-02T12:18:41.170Z,34.70
2022-08-02T12:21:26.510Z,35.04
2022-08-02T12:24:00.116Z,34.88
2022-08-02T12:26:30.064Z,34.93
2022-08-02T12:29:01.587Z,33.98
2022-08-02T12:31:57.530Z,33.96
2022-08-02T12:34:31.586Z,34.49
2022-08-02T12:37:03.741Z,34.18
2022-08-02T12:39:35.168Z,33.61
2022-08-02T12:42:02.705Z,33.72
2022-08-02T12:44:29.878Z,33.41
2022-08-02T12:47:04.158Z,33.36
2022-08-02T12:49:32.451Z,33.30
2022-08-02T12:52:02.255Z,33.79
2022-08-02T12:54:41.446Z,33.49
2022-08-02T12:57:13.748Z,33.91
2022-08-02T12:59:44.511Z,33.43
2022-08-02T13:02:13.518Z,33.79
2022-08-02T13:04:50.407Z,33.76
2022-08-02T13:07:18.878Z,34.27
2022-08-02T13:09:47.635Z,34.15
2022-08-02T13:12:15.048Z,34.19
2022-08-02T13:14:42.905Z,33.62
2022-08-02T13:17:11.457Z,34.25
2022-08-02T13:19:38.896Z,33.83
2022-08-02T13:22:11.501Z,32.52
2022-08-02T13:24:55.868Z,32.91
2022-08-02T13:27:26.638Z,33.49
2022-08-02T13:29:56.581Z,33.28
2022-08-02T13:32:25.267Z,33.07
2022-08-02T13:34:52.402Z,33.14
2022-08-02T13:37:19.744Z,33.45
2022-08-02T13:40:05.509Z,33.31
2022-08-02T13:42:34.682Z,33.14
2022-08-02T13:45:12.045Z,33.16
2022-08-02T13:48:04.089Z,33.02
2022-08-02T13:50:30.281Z,33.21
2022-08-02T13:52:57.365Z,33.41
2022-08-02T13:55:24.404Z,33.24
2022-08-02T13:57:53.638Z,32.48
2022-08-02T14:00:35.513Z,33.06
2022-08-02T14:03:05.848Z,33.02
2022-08-02T14:05:44.721Z,33.22
2022-08-02T14:08:19.695Z,33.39
2022-08-02T14:10:49.108Z,33.30
2022-08-02T14:13:17.093Z,32.91
2022-08-02T14:15:44.957Z,32.85
2022-08-02T14:18:12.729Z,31.93
2022-08-02T14:20:39.797Z,32.11
2022-08-02T14:23:07.008Z,32.43
2022-08-02T14:25:33.991Z,32.43
2022-08-02T14:28:01.018Z,31.93
2022-08-02T14:30:28.444Z,32.01
2022-08-02T14:32:56.616Z,32.03
2022-08-02T14:35:23.742Z,31.83
2022-08-02T14:37:50.839Z,31.70
2022-08-02T14:40:28.156Z,31.66
2022-08-02T14:43:02.596Z,32.00
2022-08-02T14:45:36.624Z,31.41
2022-08-02T14:48:07.741Z,31.15
2022-08-02T14:50:35.715Z,31.52
2022-08-02T14:53:02.757Z,31.89
2022-08-02T14:55:29.854Z,31.53
2022-08-02T14:57:56.937Z,31.80
2022-08-02T15:00:23.942Z,31.94
2022-08-02T15:02:51.119Z,31.92
2022-08-02T15:05:18.118Z,31.86
2022-08-02T15:07:49.370Z,31.83
2022-08-02T15:10:16.722Z,31.62
2022-08-02T15:12:46.088Z,31.90
2022-08-02T15:15:13.292Z,31.26
2022-08-02T15:17:40.472Z,31.00
2022-08-02T15:20:25.195Z,30.81
2022-08-02T15:22:53.247Z,31.06
2022-08-02T15:25:21.481Z,30.86
2022-08-02T15:27:48.713Z,31.09
2022-08-02T15:30:15.881Z,31.29
2022-08-02T15:32:53.346Z,31.22
2022-08-02T15:35:21.457Z,31.18
2022-08-02T15:37:48.439Z,31.14
2022-08-02T15:40:15.516Z,31.17
2022-08-02T15:42:43.820Z,30.91
2022-08-02T15:45:15.653Z,30.82
2022-08-02T15:47:48.118Z,30.93
2022-08-02T15:50:18.633Z,30.22
2022-08-02T15:52:45.789Z,30.88
2022-08-02T15:55:13.619Z,30.87
2022-08-02T15:57:41.952Z,30.87
2022-08-02T16:00:18.134Z,30.65
2022-08-02T16:02:47.837Z,30.57
2022-08-02T16:05:18.073Z,30.70
2022-08-02T16:07:46.486Z,30.74
2022-08-02T16:10:15.074Z,30.86
2022-08-02T16:12:42.205Z,30.40
2022-08-02T16:15:09.673Z,30.58
2022-08-02T16:17:53.796Z,30.29
2022-08-02T16:20:23.266Z,30.47
2022-08-02T16:22:50.359Z,30.58
2022-08-02T16:25:17.683Z,30.33
2022-08-02T16:27:57.560Z,30.01
2022-08-02T16:30:32.307Z,29.96
2022-08-02T16:32:59.370Z,29.98
2022-08-02T16:35:28.125Z,29.78
2022-08-02T16:37:55.131Z,29.51
2022-08-02T16:40:22.489Z,29.44
2022-08-02T16:42:50.537Z,29.57
2022-08-02T16:45:22.594Z,29.67
2022-08-02T16:47:55.102Z,29.54
2022-08-02T16:50:27.140Z,29.48
2022-08-02T16:52:58.353Z,29.35
2022-08-02T16:55:26.319Z,29.27
2022-08-02T16:57:58.578Z,29.31
2022-08-02T17:00:26.209Z,29.55
2022-08-02T17:02:54.760Z,29.44
2022-08-02T17:05:29.829Z,29.64
2022-08-02T17:08:07.954Z,29.76
2022-08-02T17:10:43.841Z,29.86
2022-08-02T17:16:17.059Z,29.84
2022-08-02T17:18:47.104Z,29.58
2022-08-02T17:21:18.247Z,29.21
2022-08-02T17:24:02.834Z,29.48
2022-08-02T17:26:32.644Z,29.34
2022-08-02T17:29:16.503Z,29.28
2022-08-02T17:32:05.259Z,29.44
2022-08-02T17:34:34.219Z,29.26
2022-08-02T17:37:01.366Z,29.41
2022-08-02T17:39:33.543Z,29.30
2022-08-02T17:42:02.775Z,29.24
2022-08-02T17:44:37.465Z,29.10
2022-08-02T17:47:11.846Z,29.13
2022-08-02T17:49:43.939Z,29.16
2022-08-02T17:52:48.207Z,28.97
2022-08-02T17:54:58.882Z,28.78
2022-08-02T17:57:56.280Z,28.81
2022-08-02T18:00:13.991Z,28.70
2022-08-02T18:02:41.919Z,28.48
2022-08-02T18:05:13.261Z,28.37
2022-08-02T18:07:53.036Z,28.36
2022-08-02T18:10:23.783Z,28.09
2022-08-02T18:12:53.419Z,27.88
2022-08-02T18:15:23.285Z,28.09
2022-08-02T18:17:51.260Z,28.05
2022-08-02T18:20:34.772Z,27.80
2022-08-02T18:23:02.570Z,27.76
2022-08-02T18:25:37.342Z,27.38
2022-08-02T18:28:11.398Z,27.43
2022-08-02T18:30:39.119Z,27.47
2022-08-02T18:33:58.786Z,27.35
2022-08-02T18:35:55.354Z,27.18
2022-08-02T18:38:28.377Z,27.04
2022-08-02T18:40:55.813Z,27.04
2022-08-02T18:43:25.037Z,26.96
2022-08-02T18:46:05.902Z,26.79
2022-08-02T18:48:35.311Z,26.70
2022-08-02T18:51:03.243Z,26.65
2022-08-02T18:53:41.748Z,26.59
2022-08-02T18:56:20.418Z,26.39
2022-08-02T18:58:55.568Z,26.05
2022-08-02T19:01:34.033Z,25.93
2022-08-02T19:04:04.624Z,25.70
2022-08-02T19:06:32.764Z,25.66
2022-08-02T19:11:48.228Z,25.52
2022-08-02T19:14:27.641Z,25.50
2022-08-02T19:16:57.878Z,25.53
2022-08-02T19:22:26.805Z,25.32
2022-08-02T19:25:01.009Z,25.22
2022-08-02T19:27:32.508Z,25.09
2022-08-02T19:30:07.598Z,24.92
2022-08-02T19:32:42.754Z,24.69
2022-08-02T19:35:30.467Z,24.67
2022-08-02T19:38:08.772Z,24.48
2022-08-02T19:40:36.726Z,24.35
2022-08-02T19:44:25.691Z,24.16
2022-08-02T19:45:57.141Z,24.12
2022-08-02T19:48:27.241Z,24.14
2022-08-02T19:51:00.978Z,24.23
2022-08-02T19:53:48.223Z,24.16
2022-08-02T19:56:25.523Z,24.05
2022-08-02T19:58:54.758Z,23.51
2022-08-02T20:01:36.920Z,23.67
2022-08-02T20:04:07.491Z,23.53
2022-08-02T20:06:42.819Z,23.41
2022-08-02T20:09:21.405Z,23.01
2022-08-02T20:12:05.898Z,23.33
2022-08-02T20:14:33.048Z,23.34
2022-08-02T20:17:00.974Z,23.14
2022-08-02T20:22:15.984Z,23.24
2022-08-02T20:24:43.519Z,23.18
2022-08-02T20:27:17.030Z,23.17
2022-08-02T20:29:51.039Z,22.89
2022-08-02T20:32:24.353Z,23.12
2022-08-02T20:34:52.841Z,23.15
2022-08-02T20:38:00.257Z,23.13
2022-08-02T20:40:08.615Z,23.00
2022-08-02T20:42:35.690Z,22.95
2022-08-02T20:45:04.861Z,22.98
2022-08-02T20:50:38.150Z,22.85
2022-08-02T20:53:06.865Z,22.90
2022-08-02T20:55:35.784Z,22.70
2022-08-02T20:58:04.548Z,22.74
2022-08-02T21:00:35.018Z,22.77
2022-08-02T21:03:04.537Z,22.68
2022-08-02T21:05:43.540Z,22.80
2022-08-02T21:08:21.358Z,22.72
2022-08-02T21:10:51.769Z,22.79
2022-08-02T21:13:25.898Z,22.73
2022-08-02T21:15:55.130Z,22.51
2022-08-02T21:18:30.126Z,22.52
2022-08-02T21:21:06.591Z,22.34
2022-08-02T21:23:36.908Z,22.36
2022-08-02T21:26:06.706Z,22.25
2022-08-02T21:31:22.991Z,22.01
2022-08-02T21:36:38.418Z,22.09
2022-08-02T21:39:14.123Z,22.09
2022-08-02T21:44:31.632Z,21.87
2022-08-02T21:46:58.874Z,21.84
2022-08-02T21:50:09.812Z,21.81
2022-08-02T21:52:25.990Z,21.79
2022-08-02T21:54:56.819Z,21.73
2022-08-02T21:57:26.990Z,21.58
2022-08-02T22:00:11.330Z,21.44
2022-08-02T22:02:41.546Z,21.40
2022-08-02T22:05:15.891Z,21.30
2022-08-02T22:07:45.820Z,21.07
2022-08-02T22:10:16.029Z,21.20
2022-08-02T22:12:53.580Z,21.19
2022-08-02T22:15:25.874Z,21.16
2022-08-02T22:18:06.694Z,21.17
2022-08-02T22:21:01.871Z,21.19
2022-08-02T22:23:50.267Z,21.15
2022-08-02T22:26:18.978Z,21.03
2022-08-02T22:28:51.032Z,20.97
2022-08-02T22:31:40.342Z,21.06
2022-08-02T22:34:26.734Z,20.95
2022-08-02T22:36:55.463Z,20.92
2022-08-02T22:39:22.568Z,20.98
2022-08-02T22:42:05.365Z,20.90
2022-08-02T22:44:35.659Z,20.83
2022-08-02T22:47:07.237Z,20.88
2022-08-02T22:49:51.863Z,20.83
2022-08-02T22:52:23.268Z,20.84
2022-08-02T22:54:51.127Z,20.71
2022-08-02T22:57:29.919Z,20.59
2022-08-02T22:58:47.003Z,25.59
2022-08-02T22:58:49.679Z,29.73
2022-08-02T22:58:55.200Z,23.32
2022-08-02T22:58:56.233Z,22.90
2022-08-02T22:58:57.369Z,25.45
2022-08-02T22:59:02.908Z,22.25
2022-08-02T22:59:03.343Z,21.95
2022-08-02T22:59:12.330Z,22.11
2022-08-02T22:59:57.290Z,20.58
2022-08-02T23:02:25.085Z,20.57
2022-08-02T23:04:52.721Z,20.45
2022-08-02T23:07:19.795Z,20.46
2022-08-02T23:09:46.899Z,20.33
2022-08-02T23:12:19.064Z,20.33
2022-08-02T23:14:51.219Z,20.13
2022-08-02T23:17:38.412Z,20.15
2022-08-02T23:20:07.303Z,20.00
2022-08-02T23:22:34.392Z,19.96
2022-08-02T23:25:03.580Z,19.99
2022-08-02T23:27:32.170Z,19.69
2022-08-02T23:30:00.928Z,19.72
2022-08-02T23:32:28.491Z,19.73
2022-08-02T23:34:57.410Z,19.73
2022-08-02T23:37:24.943Z,19.70
2022-08-02T23:39:52.409Z,19.83
2022-08-02T23:42:37.984Z,19.69
2022-08-02T23:45:05.396Z,19.66
2022-08-02T23:47:32.381Z,19.72
2022-08-02T23:49:59.350Z,19.68
2022-08-02T23:52:26.387Z,19.49
2022-08-02T23:54:53.375Z,19.37
2022-08-02T23:57:21.657Z,19.52
2022-08-02T23:59:52.180Z,19.26
